Maxwell Air Force Base
KMXF : now visible

Airfield :











YOU CAN JOIN US ON...

 
LOGIN :

Register | Disclaimer

   EN    FR    IT 

 









Legend :    VFR   Marginal VFR   IFR   Intensive IFR   Very Intensive IFR
Visi :
Ceiling :
>= 8 km
>= 3000ft
5 to 8 km
1000 to 3000 ft
1500m to 5 km
500 to 1000 ft
800 to 1500m
200 to 500 ft
< 800m
< 200 ft
Symbols :   Thunderstorms  Fog  Heavy snow  Heavy precipitations  Wind > 20 kt






- Airport Elevation : 171 ft


KMXF - Maxwell Air Force Base

CURRENT METAR :
  • 271426Z AUTO 03005KT 10SM BKN014 OVC020 15/14 A3013 RMK AO2 SLP205 PNO $

EXPIRED METARs :
  • 271356Z AUTO 01003KT 10SM OVC017 14/13 A3014 RMK AO2 SLP209 T01400130 PNO $
  • 271326Z AUTO 35003KT 10SM BKN017 OVC023 14/13 A3013 RMK AO2 SLP205 PNO $
  • 271256Z AUTO 00000KT 7SM CLR 13/12 A3012 RMK AO2 SLP202 T01280122 PNO $
  • 271156Z AUTO 00000KT 10SM SCT055 13/12 A3011 RMK AO2 SLP199 T01290121 10143 20129 50006 PNO $

Expired Forecast.
KZTL FIR / North America



MET'MAP, your aeronautical weather chart ! - Copyright ORBIFLY December 2007 - Disclaimer

ORBIFLY MET'MAP TEAM :

Programming & Development : Alexandra Zaïnal
Concept & original design : Baudouin d'Aumeries
Assistance for programming : Marc-Olivier Méhu
Technical & hardware support : Manuel Goepfert

Contact : metmap@orbifly.com




SOURCES & CREDITS :

   NOAA       Earth
Advisory